createdAt,value
2018-07-13T00:02:24.833Z,98613.08
2018-07-13T00:04:53.208Z,98603.34
2018-07-13T00:07:21.557Z,98603.02
2018-07-13T00:09:56.545Z,98597.02
2018-07-13T00:12:24.873Z,98596.78
2018-07-13T00:15:03.365Z,98606.14
2018-07-13T00:17:31.767Z,98602.28
2018-07-13T00:20:00.208Z,98600.09
2018-07-13T00:22:28.430Z,98604.75
2018-07-13T00:24:56.765Z,98599.70
2018-07-13T00:27:25.098Z,98598.41
2018-07-13T00:29:53.401Z,98601.56
2018-07-13T00:32:21.707Z,98611.09
2018-07-13T00:34:50.207Z,98610.63
2018-07-13T00:37:18.534Z,98614.86
2018-07-13T00:39:46.815Z,98615.42
2018-07-13T00:42:15.135Z,98610.23
2018-07-13T00:44:43.494Z,98612.47
2018-07-13T00:47:11.945Z,98612.22
2018-07-13T00:49:40.236Z,98614.55
2018-07-13T00:52:08.513Z,98623.23
2018-07-13T00:54:36.892Z,98637.86
2018-07-13T00:57:05.202Z,98629.20
2018-07-13T00:59:33.584Z,98627.52
2018-07-13T01:02:01.926Z,98634.06
2018-07-13T01:04:30.286Z,98632.95
2018-07-13T01:06:58.597Z,98639.44
2018-07-13T01:09:26.930Z,98632.58
2018-07-13T01:11:55.280Z,98625.68
2018-07-13T01:14:23.655Z,98621.77
2018-07-13T01:16:51.968Z,98626.86
2018-07-13T01:19:20.329Z,98623.27
2018-07-13T01:21:48.635Z,98621.34
2018-07-13T01:24:17.207Z,98622.75
2018-07-13T01:26:45.604Z,98626.27
2018-07-13T01:29:15.113Z,98622.88
2018-07-13T01:31:43.429Z,98616.75
2018-07-13T01:34:11.820Z,98618.00
2018-07-13T01:36:40.117Z,98615.77
2018-07-13T01:39:11.174Z,98622.41
2018-07-13T01:41:39.489Z,98626.27
2018-07-13T01:44:07.786Z,98628.58
2018-07-13T01:46:36.104Z,98627.83
2018-07-13T01:49:04.499Z,98628.89
2018-07-13T01:51:32.792Z,98631.74
2018-07-13T01:54:01.236Z,98627.30
2018-07-13T01:56:29.713Z,98627.18
2018-07-13T01:58:58.191Z,98625.89
2018-07-13T02:01:26.500Z,98626.31
2018-07-13T02:03:54.964Z,98626.59
2018-07-13T02:06:23.377Z,98630.48
2018-07-13T02:08:51.655Z,98629.72
2018-07-13T02:11:20.125Z,98636.81
2018-07-13T02:13:48.679Z,98638.11
2018-07-13T02:16:16.969Z,98632.45
2018-07-13T02:18:45.290Z,98632.88
2018-07-13T02:21:13.604Z,98627.80
2018-07-13T02:23:41.928Z,98631.83
2018-07-13T02:26:10.408Z,98627.61
2018-07-13T02:28:38.693Z,98632.14
2018-07-13T02:31:07.133Z,98639.44
2018-07-13T02:33:35.404Z,98642.41
2018-07-13T02:36:03.784Z,98636.40
2018-07-13T02:38:32.203Z,98639.52
2018-07-13T02:41:00.632Z,98641.31
2018-07-13T02:43:29.021Z,98640.89
2018-07-13T02:45:57.354Z,98637.95
2018-07-13T02:48:25.667Z,98638.14
2018-07-13T02:50:54.048Z,98649.84
2018-07-13T02:53:22.365Z,98647.45
2018-07-13T02:55:50.719Z,98652.01
2018-07-13T02:58:19.034Z,98660.15
2018-07-13T03:00:47.308Z,98664.73
2018-07-13T03:03:15.825Z,98661.69
2018-07-13T03:05:44.199Z,98663.38
2018-07-13T03:08:12.115Z,98662.45
2018-07-13T03:10:40.425Z,98658.82
2018-07-13T03:13:08.842Z,98664.95
2018-07-13T03:15:37.357Z,98667.67
2018-07-13T03:18:05.659Z,98669.50
2018-07-13T03:20:33.991Z,98667.24
2018-07-13T03:23:02.326Z,98672.91
2018-07-13T03:25:30.645Z,98672.36
2018-07-13T03:27:59.536Z,98669.28
2018-07-13T03:30:27.827Z,98671.75
2018-07-13T03:32:56.161Z,98666.22
2018-07-13T03:35:24.410Z,98672.78
2018-07-13T03:37:52.833Z,98676.73
2018-07-13T03:40:21.240Z,98681.20
2018-07-13T03:42:49.490Z,98690.56
2018-07-13T03:45:17.872Z,98687.95
2018-07-13T03:47:48.340Z,98689.28
2018-07-13T03:50:17.101Z,98687.09
2018-07-13T03:52:45.572Z,98690.21
2018-07-13T03:55:13.918Z,98694.08
2018-07-13T03:57:42.413Z,98684.05
2018-07-13T04:00:10.750Z,98683.97
2018-07-13T04:02:39.107Z,98681.71
2018-07-13T04:05:07.433Z,98682.03
2018-07-13T04:07:35.698Z,98684.89
2018-07-13T04:10:04.207Z,98682.48
2018-07-13T04:12:32.645Z,98685.88
2018-07-13T04:15:01.021Z,98684.63
2018-07-13T04:17:29.385Z,98685.34
2018-07-13T04:19:57.693Z,98692.64
2018-07-13T04:22:26.041Z,98699.52
2018-07-13T04:24:54.452Z,98690.49
2018-07-13T04:27:22.981Z,98695.45
2018-07-13T04:29:51.892Z,98689.83
2018-07-13T04:32:20.242Z,98685.14
2018-07-13T04:34:48.536Z,98685.92
2018-07-13T04:37:16.881Z,98684.06
2018-07-13T04:39:47.220Z,98681.81
2018-07-13T04:42:15.549Z,98682.39
2018-07-13T04:44:43.861Z,98679.09
2018-07-13T04:47:12.218Z,98684.97
2018-07-13T04:49:40.696Z,98688.66
2018-07-13T04:52:09.176Z,98682.06
2018-07-13T04:54:37.668Z,98684.50
2018-07-13T04:57:06.116Z,98680.16
2018-07-13T04:59:34.696Z,98685.04
2018-07-13T05:02:03.050Z,98681.73
2018-07-13T05:04:31.465Z,98685.09
2018-07-13T05:06:59.781Z,98687.20
2018-07-13T05:09:28.112Z,98696.80
2018-07-13T05:11:56.458Z,98697.16
2018-07-13T05:14:24.796Z,98686.00
2018-07-13T05:16:53.205Z,98697.33
2018-07-13T05:19:21.597Z,98686.54
2018-07-13T05:21:49.923Z,98693.66
2018-07-13T05:24:18.380Z,98694.55
2018-07-13T05:26:46.844Z,98690.87
2018-07-13T05:29:15.329Z,98690.45
2018-07-13T05:31:43.661Z,98687.02
2018-07-13T05:34:12.223Z,98689.03
2018-07-13T05:36:40.771Z,98686.48
2018-07-13T05:39:11.030Z,98690.87
2018-07-13T05:41:39.759Z,98696.70
2018-07-13T05:44:08.093Z,98699.68
2018-07-13T05:46:36.528Z,98692.42
2018-07-13T05:49:04.908Z,98690.55
2018-07-13T05:51:33.321Z,98693.28
2018-07-13T05:54:01.790Z,98698.66
2018-07-13T05:56:30.153Z,98699.59
2018-07-13T05:58:58.478Z,98701.27
2018-07-13T06:01:26.778Z,98706.44
2018-07-13T06:03:55.176Z,98700.86
2018-07-13T06:06:23.488Z,98700.72
2018-07-13T06:08:51.820Z,98702.89
2018-07-13T06:11:20.276Z,98707.48
2018-07-13T06:13:48.632Z,98701.95
2018-07-13T06:16:17.017Z,98704.53
2018-07-13T06:18:45.346Z,98708.58
2018-07-13T06:21:13.600Z,98712.66
2018-07-13T06:23:41.895Z,98706.41
2018-07-13T06:26:10.249Z,98702.32
2018-07-13T06:28:38.629Z,98705.70
2018-07-13T06:31:07.107Z,98706.33
2018-07-13T06:33:35.389Z,98710.03
2018-07-13T06:36:03.680Z,98711.28
2018-07-13T06:38:31.981Z,98705.44
2018-07-13T06:41:00.345Z,98711.13
2018-07-13T06:43:28.724Z,98710.41
2018-07-13T06:45:57.109Z,98709.55
2018-07-13T06:48:25.441Z,98705.68
2018-07-13T06:50:53.857Z,98706.83
2018-07-13T06:53:22.258Z,98715.87
2018-07-13T06:55:50.615Z,98719.90
2018-07-13T06:58:30.298Z,98720.80
2018-07-13T07:01:02.638Z,98715.69
2018-07-13T07:03:32.592Z,98725.44
2018-07-13T07:06:07.211Z,98720.43
2018-07-13T07:08:36.441Z,98729.26
2018-07-13T07:11:04.846Z,98731.32
2018-07-13T07:13:38.474Z,98731.97
2018-07-13T07:16:06.792Z,98722.05
2018-07-13T07:18:35.123Z,98730.86
2018-07-13T07:21:03.504Z,98725.38
2018-07-13T07:23:33.300Z,98718.59
2018-07-13T07:26:02.357Z,98714.72
2018-07-13T07:28:30.741Z,98718.89
2018-07-13T07:31:00.099Z,98719.64
2018-07-13T07:33:28.439Z,98710.19
2018-07-13T07:35:56.870Z,98710.28
2018-07-13T07:38:25.354Z,98708.62
2018-07-13T07:40:53.652Z,98709.63
2018-07-13T07:43:22.014Z,98709.23
2018-07-13T07:45:50.366Z,98708.41
2018-07-13T07:48:18.725Z,98709.25
2018-07-13T07:50:47.143Z,98712.12
2018-07-13T07:53:15.465Z,98708.80
2018-07-13T07:55:43.714Z,98708.75
2018-07-13T07:58:12.090Z,98715.09
2018-07-13T08:00:40.362Z,98704.13
2018-07-13T08:03:08.687Z,98710.45
2018-07-13T08:05:37.025Z,98705.96
2018-07-13T08:08:05.708Z,98699.89
2018-07-13T08:10:33.970Z,98710.92
2018-07-13T08:13:02.324Z,98706.78
2018-07-13T08:15:30.677Z,98709.64
2018-07-13T08:17:59.028Z,98708.40
2018-07-13T08:20:31.220Z,98707.41
2018-07-13T08:23:02.250Z,98705.23
2018-07-13T08:25:30.961Z,98702.75
2018-07-13T08:28:01.277Z,98697.70
2018-07-13T08:30:32.914Z,98690.91
2018-07-13T08:33:01.244Z,98687.72
2018-07-13T08:35:29.583Z,98686.48
2018-07-13T08:37:57.937Z,98687.45
2018-07-13T08:40:27.326Z,98678.33
2018-07-13T08:42:55.699Z,98680.42
2018-07-13T08:45:24.116Z,98677.02
2018-07-13T08:47:52.557Z,98676.13
2018-07-13T08:50:20.943Z,98676.31
2018-07-13T08:52:49.299Z,98679.68
2018-07-13T08:55:17.663Z,98676.70
2018-07-13T08:57:47.621Z,98676.00
2018-07-13T09:00:16.256Z,98672.27
2018-07-13T09:02:44.537Z,98671.30
2018-07-13T09:05:12.882Z,98676.39
2018-07-13T09:07:41.231Z,98675.87
2018-07-13T09:10:11.865Z,98676.30
2018-07-13T09:12:40.619Z,98674.16
2018-07-13T09:15:09.744Z,98680.14
2018-07-13T09:17:38.019Z,98674.23
2018-07-13T09:20:07.729Z,98678.58
2018-07-13T09:22:36.009Z,98675.98
2018-07-13T09:25:04.431Z,98674.61
2018-07-13T09:27:32.671Z,98683.06
2018-07-13T09:30:00.933Z,98679.92
2018-07-13T09:32:29.340Z,98681.00
2018-07-13T09:34:57.654Z,98681.78
2018-07-13T09:37:25.988Z,98682.45
2018-07-13T09:39:54.404Z,98678.12
2018-07-13T09:42:22.732Z,98682.52
2018-07-13T09:44:51.123Z,98682.70
2018-07-13T09:47:19.517Z,98682.45
2018-07-13T09:49:47.875Z,98687.56
2018-07-13T09:52:16.242Z,98684.66
2018-07-13T09:54:44.563Z,98679.33
2018-07-13T09:57:12.820Z,98682.59
2018-07-13T09:59:41.099Z,98675.52
2018-07-13T10:02:09.096Z,98682.81
2018-07-13T10:04:37.453Z,98682.81
2018-07-13T10:07:06.306Z,98685.97
2018-07-13T10:09:34.805Z,98680.92
2018-07-13T10:12:03.181Z,98682.53
2018-07-13T10:14:31.501Z,98680.36
2018-07-13T10:16:59.749Z,98677.52
2018-07-13T10:19:28.183Z,98673.72
2018-07-13T10:21:56.971Z,98679.69
2018-07-13T10:24:25.734Z,98672.16
2018-07-13T10:26:55.296Z,98675.41
2018-07-13T10:29:29.920Z,98670.95
2018-07-13T10:31:58.165Z,98676.02
2018-07-13T10:34:26.614Z,98678.03
2018-07-13T10:37:03.005Z,98678.62
2018-07-13T10:39:31.938Z,98674.47
2018-07-13T10:42:00.391Z,98674.00
2018-07-13T10:44:28.923Z,98670.19
2018-07-13T10:46:57.280Z,98674.38
2018-07-13T10:49:25.548Z,98664.73
2018-07-13T10:51:53.895Z,98665.73
2018-07-13T10:54:22.537Z,98666.38
2018-07-13T10:56:50.765Z,98666.90
2018-07-13T10:59:19.015Z,98668.57
2018-07-13T11:01:47.324Z,98676.81
2018-07-13T11:04:15.778Z,98671.53
2018-07-13T11:06:44.967Z,98665.72
2018-07-13T11:09:13.325Z,98663.09
2018-07-13T11:11:41.624Z,98661.92
2018-07-13T11:14:10.380Z,98667.29
2018-07-13T11:16:38.971Z,98658.45
2018-07-13T11:19:07.388Z,98659.08
2018-07-13T11:21:35.765Z,98653.70
2018-07-13T11:24:04.065Z,98650.00
2018-07-13T11:26:32.373Z,98649.81
2018-07-13T11:29:01.038Z,98644.59
2018-07-13T11:31:29.413Z,98640.62
2018-07-13T11:33:57.740Z,98640.88
2018-07-13T11:36:26.076Z,98639.41
2018-07-13T11:38:54.420Z,98635.11
2018-07-13T11:41:22.752Z,98636.87
2018-07-13T11:43:51.073Z,98631.03
2018-07-13T11:46:19.370Z,98628.22
2018-07-13T11:48:47.617Z,98624.34
2018-07-13T11:51:16.131Z,98631.15
2018-07-13T11:53:44.482Z,98621.78
2018-07-13T11:56:13.157Z,98619.41
2018-07-13T11:58:41.550Z,98616.45
2018-07-13T12:01:09.866Z,98615.52
2018-07-13T12:03:38.191Z,98607.11
2018-07-13T12:06:06.667Z,98598.13
2018-07-13T12:08:34.990Z,98604.31
2018-07-13T12:11:03.342Z,98599.90
2018-07-13T12:13:31.643Z,98593.24
2018-07-13T12:16:00.031Z,98597.39
2018-07-13T12:18:28.376Z,98592.67
2018-07-13T12:20:56.704Z,98592.34
2018-07-13T12:23:25.188Z,98590.02
2018-07-13T12:25:54.919Z,98590.16
2018-07-13T12:28:24.733Z,98584.55
2018-07-13T12:30:53.049Z,98581.41
2018-07-13T12:33:21.385Z,98586.87
2018-07-13T12:35:49.750Z,98587.70
2018-07-13T12:38:18.275Z,98589.46
2018-07-13T12:40:46.723Z,98580.99
2018-07-13T12:43:15.850Z,98585.13
2018-07-13T12:45:44.145Z,98579.27
2018-07-13T12:48:12.416Z,98583.58
2018-07-13T12:50:40.773Z,98576.08
2018-07-13T12:53:09.077Z,98570.11
2018-07-13T12:55:37.581Z,98567.69
2018-07-13T12:58:06.071Z,98572.63
2018-07-13T13:00:34.369Z,98561.42
2018-07-13T13:03:02.642Z,98565.36
2018-07-13T13:05:33.001Z,98554.41
2018-07-13T13:08:01.642Z,98554.39
2018-07-13T13:10:31.221Z,98550.63
2018-07-13T13:12:59.735Z,98550.34
2018-07-13T13:15:28.195Z,98552.25
2018-07-13T13:17:56.407Z,98552.30
2018-07-13T13:20:24.730Z,98542.64
2018-07-13T13:22:53.041Z,98541.77
2018-07-13T13:25:21.404Z,98545.78
2018-07-13T13:27:49.753Z,98544.20
2018-07-13T13:30:18.057Z,98538.48
2018-07-13T13:32:46.390Z,98540.00
2018-07-13T13:35:14.624Z,98538.44
2018-07-13T13:37:42.930Z,98538.06
2018-07-13T13:40:11.360Z,98532.14
2018-07-13T13:42:39.623Z,98534.59
2018-07-13T13:45:08.090Z,98532.22
2018-07-13T13:47:36.429Z,98530.81
2018-07-13T13:50:04.749Z,98529.62
2018-07-13T13:52:33.048Z,98526.84
2018-07-13T13:55:01.449Z,98527.36
2018-07-13T13:57:29.712Z,98525.03
2018-07-13T13:59:58.006Z,98518.99
2018-07-13T14:02:26.390Z,98525.56
2018-07-13T14:04:55.865Z,98515.37
2018-07-13T14:07:24.133Z,98524.09
2018-07-13T14:09:52.425Z,98514.02
2018-07-13T14:12:20.843Z,98524.54
2018-07-13T14:14:49.219Z,98522.11
2018-07-13T14:17:17.489Z,98514.79
2018-07-13T14:19:45.787Z,98518.55
2018-07-13T14:22:14.067Z,98517.31
2018-07-13T14:24:44.008Z,98517.31
2018-07-13T14:27:12.364Z,98507.81
2018-07-13T14:29:40.686Z,98505.25
2018-07-13T14:32:09.023Z,98501.30
2018-07-13T14:34:37.397Z,98517.44
2018-07-13T14:37:05.555Z,98512.09
2018-07-13T14:39:33.884Z,98505.95
2018-07-13T14:42:02.147Z,98497.30
2018-07-13T14:44:30.463Z,98506.18
2018-07-13T14:46:59.576Z,98506.06
2018-07-13T14:49:27.781Z,98496.38
2018-07-13T14:51:56.055Z,98502.83
2018-07-13T14:54:24.393Z,98510.45
2018-07-13T14:56:52.710Z,98494.64
2018-07-13T14:59:21.392Z,98498.03
2018-07-13T15:01:49.669Z,98491.33
2018-07-13T15:04:17.936Z,98488.94
2018-07-13T15:06:46.373Z,98487.03
2018-07-13T15:09:14.742Z,98484.63
2018-07-13T15:11:43.110Z,98487.64
2018-07-13T15:14:11.396Z,98484.30
2018-07-13T15:16:39.788Z,98482.55
2018-07-13T15:19:08.081Z,98484.75
2018-07-13T15:21:36.367Z,98482.47
2018-07-13T15:24:04.653Z,98470.06
2018-07-13T15:26:32.891Z,98478.27
2018-07-13T15:29:01.207Z,98477.45
2018-07-13T15:31:29.541Z,98485.78
2018-07-13T15:33:57.846Z,98459.52
2018-07-13T15:36:26.186Z,98471.44
2018-07-13T15:38:54.508Z,98473.84
2018-07-13T15:41:22.833Z,98471.04
2018-07-13T15:43:52.193Z,98475.30
2018-07-13T15:46:22.786Z,98457.52
2018-07-13T15:48:51.293Z,98457.04
2018-07-13T15:51:19.609Z,98458.38
2018-07-13T15:53:47.974Z,98456.11
2018-07-13T15:56:16.432Z,98461.50
2018-07-13T15:58:44.876Z,98441.48
2018-07-13T16:01:12.966Z,98439.34
2018-07-13T16:03:41.302Z,98453.55
2018-07-13T16:06:09.741Z,98443.73
2018-07-13T16:08:38.083Z,98440.54
2018-07-13T16:11:06.500Z,98433.25
2018-07-13T16:13:34.791Z,98434.42
2018-07-13T16:16:03.172Z,98436.20
2018-07-13T16:18:31.499Z,98431.70
2018-07-13T16:20:59.849Z,98421.54
2018-07-13T16:23:28.193Z,98419.66
2018-07-13T16:25:56.506Z,98418.27
2018-07-13T16:28:25.161Z,98417.22
2018-07-13T16:30:53.451Z,98411.14
2018-07-13T16:33:21.753Z,98412.80
2018-07-13T16:35:50.019Z,98410.68
2018-07-13T16:38:18.279Z,98404.52
2018-07-13T16:40:46.582Z,98412.31
2018-07-13T16:43:14.901Z,98410.55
2018-07-13T16:45:43.262Z,98405.98
2018-07-13T16:48:11.580Z,98393.03
2018-07-13T16:50:40.120Z,98398.64
2018-07-13T16:53:08.347Z,98400.04
2018-07-13T16:55:36.953Z,98402.58
2018-07-13T16:58:05.338Z,98407.41
2018-07-13T17:00:33.615Z,98403.42
2018-07-13T17:03:02.045Z,98404.41
2018-07-13T17:05:30.361Z,98401.63
2018-07-13T17:07:58.754Z,98393.08
2018-07-13T17:10:27.033Z,98391.78
2018-07-13T17:12:55.270Z,98397.34
2018-07-13T17:15:23.586Z,98390.14
2018-07-13T17:17:51.831Z,98383.09
2018-07-13T17:20:20.078Z,98397.01
2018-07-13T17:22:50.957Z,98389.23
2018-07-13T17:25:19.270Z,98389.38
2018-07-13T17:27:47.583Z,98388.64
2018-07-13T17:30:15.819Z,98381.57
2018-07-13T17:32:44.062Z,98387.40
2018-07-13T17:35:12.452Z,98382.20
2018-07-13T17:37:40.694Z,98375.63
2018-07-13T17:40:09.711Z,98381.39
2018-07-13T17:42:38.078Z,98375.77
2018-07-13T17:45:06.636Z,98376.97
2018-07-13T17:47:35.045Z,98371.62
2018-07-13T17:50:03.467Z,98370.91
2018-07-13T17:52:31.882Z,98370.06
2018-07-13T17:55:00.236Z,98369.21
2018-07-13T17:57:28.655Z,98379.52
2018-07-13T17:59:56.976Z,98382.20
2018-07-13T18:02:25.251Z,98373.08
2018-07-13T18:04:53.497Z,98380.62
2018-07-13T18:07:21.806Z,98378.30
2018-07-13T18:09:50.070Z,98385.13
2018-07-13T18:12:18.430Z,98384.95
2018-07-13T18:14:46.838Z,98391.23
2018-07-13T18:17:15.214Z,98398.86
2018-07-13T18:19:43.533Z,98402.36
2018-07-13T18:22:12.049Z,98408.27
2018-07-13T18:24:40.304Z,98412.98
2018-07-13T18:27:08.991Z,98413.45
2018-07-13T18:29:38.762Z,98411.98
2018-07-13T18:32:07.381Z,98408.20
2018-07-13T18:34:40.988Z,98407.28
2018-07-13T18:37:09.772Z,98408.09
2018-07-13T18:39:38.111Z,98405.41
2018-07-13T18:42:09.010Z,98416.81
2018-07-13T18:44:41.967Z,98421.69
2018-07-13T18:47:11.929Z,98419.44
2018-07-13T18:49:40.352Z,98418.70
2018-07-13T18:52:10.205Z,98418.16
2018-07-13T18:54:43.059Z,98424.92
2018-07-13T18:57:11.937Z,98422.77
2018-07-13T18:59:40.308Z,98430.27
2018-07-13T19:02:08.595Z,98427.28
2018-07-13T19:04:36.842Z,98426.81
2018-07-13T19:07:05.118Z,98427.56
2018-07-13T19:09:33.455Z,98434.52
2018-07-13T19:12:01.858Z,98433.26
2018-07-13T19:14:30.111Z,98441.78
2018-07-13T19:16:58.463Z,98436.63
2018-07-13T19:19:26.737Z,98441.73
2018-07-13T19:21:55.024Z,98439.11
2018-07-13T19:24:25.430Z,98449.50
2018-07-13T19:26:53.664Z,98444.17
2018-07-13T19:29:21.938Z,98449.21
2018-07-13T19:31:50.267Z,98453.92
2018-07-13T19:34:18.591Z,98451.86
2018-07-13T19:36:46.925Z,98456.64
2018-07-13T19:39:15.207Z,98462.23
2018-07-13T19:41:45.681Z,98465.66
2018-07-13T19:44:13.996Z,98465.88
2018-07-13T19:46:42.366Z,98474.05
2018-07-13T19:49:10.489Z,98473.92
2018-07-13T19:51:38.854Z,98480.85
2018-07-13T19:54:07.155Z,98480.05
2018-07-13T19:56:35.495Z,98480.14
2018-07-13T19:59:04.000Z,98485.52
2018-07-13T20:01:32.175Z,98489.03
2018-07-13T20:04:00.467Z,98492.45
2018-07-13T20:06:28.808Z,98504.08
2018-07-13T20:08:57.161Z,98503.12
2018-07-13T20:11:25.541Z,98506.92
2018-07-13T20:13:53.835Z,98509.85
2018-07-13T20:16:22.168Z,98507.34
2018-07-13T20:18:50.531Z,98511.00
2018-07-13T20:21:18.831Z,98506.44
2018-07-13T20:23:47.166Z,98515.10
2018-07-13T20:26:15.569Z,98511.89
2018-07-13T20:28:43.805Z,98510.55
2018-07-13T20:31:12.087Z,98519.38
2018-07-13T20:33:40.371Z,98521.05
2018-07-13T20:36:08.767Z,98525.18
2018-07-13T20:38:37.018Z,98523.12
2018-07-13T20:41:05.336Z,98525.64
2018-07-13T20:43:33.569Z,98525.88
2018-07-13T20:46:01.822Z,98525.61
2018-07-13T20:48:30.151Z,98522.75
2018-07-13T20:50:58.351Z,98523.08
2018-07-13T20:53:26.635Z,98529.11
2018-07-13T20:55:54.898Z,98534.45
2018-07-13T20:58:23.153Z,98535.31
2018-07-13T21:00:51.503Z,98530.31
2018-07-13T21:03:19.826Z,98532.55
2018-07-13T21:05:48.391Z,98539.31
2018-07-13T21:08:16.777Z,98541.00
2018-07-13T21:10:45.585Z,98540.31
2018-07-13T21:13:13.923Z,98539.07
2018-07-13T21:15:42.255Z,98544.50
2018-07-13T21:18:10.603Z,98545.30
2018-07-13T21:20:38.870Z,98549.81
2018-07-13T21:23:07.361Z,98549.73
2018-07-13T21:25:36.716Z,98547.16
2018-07-13T21:28:05.376Z,98552.83
2018-07-13T21:30:33.812Z,98553.26
2018-07-13T21:33:02.004Z,98543.89
2018-07-13T21:35:30.324Z,98551.75
2018-07-13T21:37:58.656Z,98551.96
2018-07-13T21:40:28.163Z,98547.38
2018-07-13T21:42:56.593Z,98546.61
2018-07-13T21:45:25.083Z,98545.76
2018-07-13T21:47:53.814Z,98549.12
2018-07-13T21:50:22.189Z,98544.70
2018-07-13T21:52:50.466Z,98547.29
2018-07-13T21:55:18.906Z,98552.47
2018-07-13T21:57:47.193Z,98557.56
2018-07-13T22:00:15.648Z,98559.86
2018-07-13T22:02:45.708Z,98568.06
2018-07-13T22:05:14.101Z,98573.06
2018-07-13T22:07:42.408Z,98572.09
2018-07-13T22:10:10.735Z,98569.98
2018-07-13T22:12:38.969Z,98576.14
2018-07-13T22:15:08.363Z,98573.29
2018-07-13T22:17:36.619Z,98571.61
2018-07-13T22:20:05.095Z,98574.55
2018-07-13T22:22:34.270Z,98572.77
2018-07-13T22:25:02.576Z,98577.20
2018-07-13T22:27:30.929Z,98576.91
2018-07-13T22:29:59.178Z,98572.41
2018-07-13T22:32:27.453Z,98576.54
2018-07-13T22:34:55.918Z,98577.05
2018-07-13T22:37:24.313Z,98571.80
2018-07-13T22:39:52.712Z,98577.51
2018-07-13T22:42:21.148Z,98572.91
2018-07-13T22:44:49.427Z,98572.73
2018-07-13T22:47:17.799Z,98574.33
2018-07-13T22:49:46.075Z,98574.52
2018-07-13T22:52:14.362Z,98572.02
2018-07-13T22:54:42.574Z,98573.05
2018-07-13T22:57:11.203Z,98573.43
2018-07-13T22:59:39.498Z,98573.48
2018-07-13T23:02:07.922Z,98573.55
2018-07-13T23:04:36.282Z,98569.31
2018-07-13T23:07:04.581Z,98574.08
2018-07-13T23:09:33.036Z,98575.52
2018-07-13T23:12:01.441Z,98576.56
2018-07-13T23:14:29.740Z,98574.37
2018-07-13T23:16:58.169Z,98569.24
2018-07-13T23:19:26.522Z,98570.17
2018-07-13T23:21:54.981Z,98570.28
2018-07-13T23:24:23.320Z,98573.52
2018-07-13T23:26:51.567Z,98563.85
2018-07-13T23:29:20.071Z,98565.27
2018-07-13T23:31:48.417Z,98569.94
2018-07-13T23:34:16.660Z,98571.50
2018-07-13T23:36:46.029Z,98568.53
2018-07-13T23:39:18.850Z,98572.00
2018-07-13T23:41:47.192Z,98568.94
2018-07-13T23:44:15.475Z,98567.79
2018-07-13T23:46:43.804Z,98566.30
2018-07-13T23:49:12.153Z,98564.55
2018-07-13T23:51:40.442Z,98560.52
2018-07-13T23:54:08.712Z,98565.16
2018-07-13T23:56:36.909Z,98576.70
2018-07-13T23:59:05.278Z,98577.50
